Time;durP1;ratioP1;P1;durP2;ratioP2;P2;SDS_P1;SDS_P2;PMS_P1;PMS_P2;Temp;Humidity;BMP_temperature;BMP_pressure;BME280_temperature;BME280_humidity;BME280_pressure;Samples;Min_cycle;Max_cycle;Signal;HPM_P1;HPM_P2
2023/05/24 00:02:25;;;;;;;6.55;5.10;;;25.10;55.50;;;;;;5090163;28;20024;-65
2023/05/24 00:04:52;;;;;;;8.95;5.07;;;25.10;55.60;;;;;;5092110;28;20517;-66
2023/05/24 00:07:18;;;;;;;7.00;4.85;;;25.10;55.70;;;;;;5092251;28;20021;-66
2023/05/24 00:09:44;;;;;;;6.05;4.60;;;25.20;55.80;;;;;;5092505;28;20020;-66
2023/05/24 00:12:10;;;;;;;6.05;4.07;;;25.10;55.80;;;;;;5082327;28;20116;-66
2023/05/24 00:14:36;;;;;;;5.50;4.60;;;25.00;55.70;;;;;;5092165;28;20035;-66
2023/05/24 00:17:02;;;;;;;6.85;5.15;;;25.00;55.70;;;;;;5107084;28;20023;-65
2023/05/24 00:19:28;;;;;;;8.60;5.03;;;25.00;55.80;;;;;;5114213;28;20039;-65
2023/05/24 00:21:54;;;;;;;8.43;5.18;;;25.00;55.80;;;;;;5114015;28;20044;-66
2023/05/24 00:24:20;;;;;;;11.07;6.18;;;24.90;55.80;;;;;;5105261;28;20036;-66
2023/05/24 00:26:47;;;;;;;9.07;5.53;;;25.00;55.70;;;;;;5091515;28;20090;-66
2023/05/24 00:29:13;;;;;;;12.43;4.97;;;24.90;55.80;;;;;;5092226;28;20024;-66
2023/05/24 00:31:39;;;;;;;12.82;6.05;;;25.00;55.90;;;;;;5084271;28;20025;-66
2023/05/24 00:34:06;;;;;;;9.77;6.20;;;24.90;55.90;;;;;;5077273;28;20051;-66
2023/05/24 00:36:32;;;;;;;11.05;6.38;;;25.00;55.90;;;;;;5097445;28;20035;-66
2023/05/24 00:38:59;;;;;;;11.63;5.85;;;24.80;55.90;;;;;;5109311;28;20036;-66
2023/05/24 00:41:25;;;;;;;9.45;5.68;;;25.00;56.00;;;;;;5089141;28;20147;-67
2023/05/24 00:43:51;;;;;;;7.85;5.43;;;24.80;56.10;;;;;;5091503;28;20040;-65
2023/05/24 00:46:25;;;;;;;9.02;4.85;;;25.00;56.10;;;;;;5101254;28;20036;-66
2023/05/24 00:48:54;;;;;;;12.00;5.32;;;25.00;55.80;;;;;;5093353;28;20032;-65
2023/05/24 00:51:20;;;;;;;8.10;5.32;;;24.90;56.10;;;;;;5091470;28;20388;-66
2023/05/24 00:53:47;;;;;;;8.30;5.80;;;24.90;55.90;;;;;;5089149;28;20148;-66
2023/05/24 00:56:15;;;;;;;9.82;5.75;;;24.90;55.90;;;;;;5089873;28;20052;-66
2023/05/24 00:58:41;;;;;;;10.05;5.47;;;24.90;56.00;;;;;;5087741;28;20493;-66
2023/05/24 01:01:07;;;;;;;11.02;5.22;;;25.00;56.00;;;;;;5087616;28;20978;-65
2023/05/24 01:03:34;;;;;;;7.85;4.72;;;24.90;56.00;;;;;;5090449;28;20051;-66
2023/05/24 01:06:02;;;;;;;8.27;4.78;;;24.90;56.00;;;;;;5089118;28;20047;-66
2023/05/24 01:08:28;;;;;;;10.13;4.85;;;24.90;55.90;;;;;;5090229;28;20052;-66
2023/05/24 01:11:03;;;;;;;7.03;4.78;;;24.80;55.90;;;;;;5088484;28;20119;-66
2023/05/24 01:13:29;;;;;;;8.20;4.70;;;24.80;55.90;;;;;;5088755;28;20043;-66
2023/05/24 01:16:10;;;;;;;7.82;5.28;;;24.90;56.10;;;;;;5087653;28;20399;-65
2023/05/24 01:18:43;;;;;;;9.10;5.25;;;24.90;56.10;;;;;;5089900;28;20108;-65
2023/05/24 01:21:12;;;;;;;5.80;4.72;;;24.90;56.10;;;;;;5073328;28;20533;-66
2023/05/24 01:24:07;;;;;;;9.00;5.35;;;24.70;56.10;;;;;;5089578;28;20048;-64
2023/05/24 01:26:50;;;;;;;;;;;24.70;56.10;;;;;;5072878;28;20102;-66
2023/05/24 01:29:16;;;;;;;9.38;4.63;;;24.70;56.10;;;;;;5101042;28;19915;-66
2023/05/24 01:31:43;;;;;;;9.80;5.53;;;24.70;56.10;;;;;;5088249;28;20048;-65
2023/05/24 01:34:10;;;;;;;9.73;5.93;;;24.60;56.10;;;;;;5091098;28;20039;-66
2023/05/24 01:36:36;;;;;;;9.15;5.20;;;24.70;56.30;;;;;;5089971;28;20028;-66
2023/05/24 01:39:04;;;;;;;9.35;5.45;;;24.70;56.30;;;;;;5090535;28;20062;-66
2023/05/24 01:41:40;;;;;;;11.05;5.28;;;24.70;56.30;;;;;;5091447;28;20810;-66
2023/05/24 01:44:42;;;;;;;9.85;6.00;;;24.60;56.20;;;;;;5102360;28;20103;-66
2023/05/24 01:47:26;;;;;;;12.30;5.68;;;24.60;56.30;;;;;;5090807;28;20036;-66
2023/05/24 01:50:06;;;;;;;12.63;5.50;;;24.70;56.40;;;;;;5072247;28;20033;-65
2023/05/24 01:52:34;;;;;;;7.47;5.43;;;24.70;56.40;;;;;;5070377;28;20085;-66
2023/05/24 01:55:03;;;;;;;9.95;5.07;;;24.70;56.40;;;;;;5078871;28;20047;-66
2023/05/24 01:57:32;;;;;;;7.20;5.28;;;24.70;56.30;;;;;;5090455;28;20515;-66
2023/05/24 02:00:00;;;;;;;8.10;6.15;;;24.70;56.40;;;;;;5089666;28;20044;-66
2023/05/24 02:02:27;;;;;;;7.10;4.88;;;24.70;56.30;;;;;;5086202;28;20483;-65
2023/05/24 02:04:53;;;;;;;7.07;5.13;;;24.70;56.30;;;;;;5097514;28;20122;-65
2023/05/24 02:07:19;;;;;;;8.18;5.35;;;24.70;56.30;;;;;;5112488;28;20078;-65
2023/05/24 02:09:45;;;;;;;7.55;5.07;;;24.60;56.20;;;;;;5108094;28;20052;-66
2023/05/24 02:12:12;;;;;;;7.40;5.30;;;24.70;56.20;;;;;;5086801;28;20078;-66
2023/05/24 02:14:41;;;;;;;6.20;5.60;;;24.60;56.10;;;;;;5085094;28;20032;-66
2023/05/24 02:17:08;;;;;;;9.32;6.07;;;24.70;56.10;;;;;;5090998;28;20031;-66
2023/05/24 02:19:35;;;;;;;10.13;5.70;;;24.60;56.10;;;;;;5090454;28;20036;-66
2023/05/24 02:22:02;;;;;;;9.18;5.70;;;24.50;56.20;;;;;;5091585;28;20744;-66
2023/05/24 02:24:29;;;;;;;8.35;5.88;;;24.70;56.20;;;;;;5088563;28;20023;-66
2023/05/24 02:26:55;;;;;;;9.02;5.88;;;24.60;56.10;;;;;;5088056;28;20043;-66
2023/05/24 02:29:21;;;;;;;8.52;5.60;;;24.70;56.20;;;;;;5088944;28;20059;-66
2023/05/24 02:31:53;;;;;;;6.72;5.28;;;24.60;56.20;;;;;;5086733;28;20051;-65
2023/05/24 02:34:19;;;;;;;9.70;5.22;;;24.50;56.20;;;;;;5090959;28;20130;-65
2023/05/24 02:36:45;;;;;;;9.85;5.47;;;24.50;56.20;;;;;;5091541;28;20452;-65
2023/05/24 02:39:11;;;;;;;6.93;5.43;;;24.50;56.20;;;;;;5088006;28;20040;-66
2023/05/24 02:41:37;;;;;;;8.50;5.88;;;24.50;56.30;;;;;;5088247;28;20024;-66
2023/05/24 02:44:04;;;;;;;9.90;5.43;;;24.50;56.40;;;;;;5086934;28;20020;-66
2023/05/24 02:46:30;;;;;;;10.18;5.40;;;24.50;56.40;;;;;;5089593;28;20032;-66
2023/05/24 02:48:56;;;;;;;7.00;5.18;;;24.50;56.40;;;;;;5091581;28;20333;-66
2023/05/24 02:51:22;;;;;;;6.65;4.60;;;24.50;56.40;;;;;;5091186;28;20066;-66
2023/05/24 02:53:48;;;;;;;7.05;4.38;;;24.50;56.50;;;;;;5073211;28;20043;-66
2023/05/24 02:56:16;;;;;;;10.30;5.55;;;24.40;56.30;;;;;;5088745;28;20044;-66
2023/05/24 02:58:43;;;;;;;8.60;4.82;;;24.50;56.40;;;;;;5086665;28;20040;-66
2023/05/24 03:01:14;;;;;;;9.27;4.90;;;24.50;56.40;;;;;;5074592;28;20098;-65
2023/05/24 03:03:40;;;;;;;8.93;5.15;;;24.50;56.30;;;;;;5109081;28;20467;-65
2023/05/24 03:06:07;;;;;;;10.45;5.50;;;24.50;56.30;;;;;;5088730;28;20114;-65
2023/05/24 03:08:33;;;;;;;6.55;5.40;;;24.50;56.40;;;;;;5090126;28;20611;-66
2023/05/24 03:10:59;;;;;;;10.45;5.38;;;24.50;56.30;;;;;;5089155;28;20031;-66
2023/05/24 03:13:25;;;;;;;11.60;5.90;;;24.50;56.20;;;;;;5087814;28;20442;-66
2023/05/24 03:15:51;;;;;;;9.02;5.88;;;24.50;56.20;;;;;;5087882;28;20073;-66
2023/05/24 03:18:17;;;;;;;9.10;6.22;;;24.50;56.10;;;;;;5091263;28;20044;-65
2023/05/24 03:20:44;;;;;;;8.20;5.13;;;24.50;56.10;;;;;;5107049;28;20033;-65
2023/05/24 03:23:13;;;;;;;8.80;6.13;;;24.50;56.00;;;;;;5114510;28;20130;-66
2023/05/24 03:25:40;;;;;;;15.30;6.00;;;24.50;56.00;;;;;;5097567;28;20147;-66
2023/05/24 03:28:06;;;;;;;10.95;6.10;;;24.60;56.00;;;;;;5098835;28;20051;-66
2023/05/24 03:30:32;;;;;;;9.75;5.00;;;24.60;55.90;;;;;;5090118;28;20076;-65
2023/05/24 03:33:02;;;;;;;7.78;4.88;;;24.50;55.90;;;;;;5109015;28;20044;-66
2023/05/24 03:35:28;;;;;;;13.27;5.80;;;24.50;55.80;;;;;;5109201;28;20460;-66
2023/05/24 03:37:55;;;;;;;8.18;5.95;;;24.60;55.80;;;;;;5095626;28;20039;-65
2023/05/24 03:40:21;;;;;;;13.32;6.03;;;24.50;55.80;;;;;;5108917;28;20127;-66
2023/05/24 03:43:01;;;;;;;10.52;6.00;;;24.60;55.60;;;;;;5084794;28;20055;-66
2023/05/24 03:45:47;;;;;;;6.88;5.55;;;24.50;55.60;;;;;;5086372;28;20057;-65
2023/05/24 03:48:13;;;;;;;9.82;6.03;;;24.50;55.70;;;;;;5091826;28;20047;-66
2023/05/24 03:50:39;;;;;;;12.57;5.95;;;24.60;55.70;;;;;;5088380;28;20377;-66
2023/05/24 03:53:05;;;;;;;7.50;5.63;;;24.60;55.50;;;;;;5074494;28;20416;-65
2023/05/24 03:55:31;;;;;;;14.18;5.60;;;24.70;55.50;;;;;;5072604;28;20032;-65
2023/05/24 03:57:57;;;;;;;7.97;5.55;;;24.70;55.40;;;;;;5087927;28;20048;-65
2023/05/24 04:00:23;;;;;;;7.45;5.50;;;24.70;55.30;;;;;;5068697;28;20076;-65
2023/05/24 04:02:49;;;;;;;10.02;6.13;;;24.70;55.30;;;;;;5053323;28;20530;-65
2023/05/24 04:05:15;;;;;;;9.30;5.55;;;24.70;55.30;;;;;;5069202;28;20028;-65
2023/05/24 04:07:44;;;;;;;10.15;7.20;;;24.70;55.30;;;;;;5053817;28;20060;-66
2023/05/24 04:10:11;;;;;;;9.32;6.28;;;24.70;55.30;;;;;;5053148;28;20451;-65
2023/05/24 04:12:38;;;;;;;10.45;5.55;;;24.70;55.30;;;;;;5069669;28;20094;-65
2023/05/24 04:15:06;;;;;;;8.75;6.18;;;24.90;55.30;;;;;;5070098;28;20032;-66
2023/05/24 04:17:33;;;;;;;10.63;6.50;;;24.90;55.10;;;;;;5070603;28;20048;-66
2023/05/24 04:20:00;;;;;;;10.63;6.05;;;24.80;54.90;;;;;;5080143;28;20405;-66
2023/05/24 04:22:29;;;;;;;18.35;6.43;;;24.90;54.90;;;;;;5091562;28;20387;-65
2023/05/24 04:24:56;;;;;;;10.38;7.05;;;24.80;54.80;;;;;;5076809;28;20041;-66
2023/05/24 04:27:24;;;;;;;7.15;5.40;;;24.90;54.90;;;;;;5068618;28;20059;-66
2023/05/24 04:29:52;;;;;;;10.60;6.10;;;24.90;55.00;;;;;;5071148;28;20123;-65
2023/05/24 04:32:18;;;;;;;9.07;6.43;;;25.00;55.00;;;;;;5054192;28;20063;-66
2023/05/24 04:34:45;;;;;;;9.65;6.57;;;24.90;55.00;;;;;;5052256;28;20098;-66
2023/05/24 04:37:12;;;;;;;11.98;6.30;;;24.80;54.80;;;;;;5068957;28;20052;-66
2023/05/24 04:39:39;;;;;;;12.85;6.15;;;24.80;54.80;;;;;;5065948;28;20053;-66
2023/05/24 04:42:06;;;;;;;8.10;5.43;;;24.80;54.70;;;;;;5067978;28;20055;-66
2023/05/24 04:44:32;;;;;;;4.35;1.60;;;24.90;54.70;;;;;;5067979;28;20153;-66
2023/05/24 04:46:59;;;;;;;1.15;1.08;;;24.90;55.40;;;;;;5069744;28;20552;-66
2023/05/24 04:49:25;;;;;;;1.30;1.30;;;25.10;55.10;;;;;;5069557;28;20539;-66
2023/05/24 04:51:51;;;;;;;1.25;1.25;;;25.00;54.30;;;;;;5070022;28;20399;-66
2023/05/24 04:54:17;;;;;;;8.40;3.90;;;25.20;53.60;;;;;;5067102;28;20119;-66
2023/05/24 04:56:43;;;;;;;5.53;2.75;;;25.30;51.80;;;;;;5080672;28;20051;-66
2023/05/24 04:59:09;;;;;;;4.93;3.15;;;25.30;51.10;;;;;;5091384;28;20035;-66
2023/05/24 05:01:36;;;;;;;4.25;3.53;;;25.30;52.30;;;;;;5094204;28;20115;-66
2023/05/24 05:04:05;;;;;;;5.75;3.22;;;25.30;52.50;;;;;;5091044;28;20070;-66
2023/05/24 05:06:33;;;;;;;7.60;2.80;;;25.40;53.20;;;;;;5090887;28;20475;-66
2023/05/24 05:08:59;;;;;;;3.03;2.40;;;25.50;52.10;;;;;;5091953;28;20028;-66
2023/05/24 05:11:26;;;;;;;9.57;4.00;;;25.60;50.50;;;;;;5090315;28;20038;-67
2023/05/24 05:13:53;;;;;;;5.70;1.98;;;25.60;50.30;;;;;;5094061;28;20065;-67
2023/05/24 05:16:19;;;;;;;3.20;2.10;;;25.60;51.20;;;;;;5100455;28;20371;-67
2023/05/24 05:18:45;;;;;;;8.13;2.58;;;25.50;49.50;;;;;;5090836;28;20052;-67
2023/05/24 05:21:11;;;;;;;9.93;6.72;;;25.60;49.80;;;;;;5090272;28;20040;-65
2023/05/24 05:23:38;;;;;;;10.65;6.40;;;25.70;51.10;;;;;;5108308;28;20146;-67
2023/05/24 05:26:06;;;;;;;16.98;11.50;;;25.70;49.50;;;;;;5096410;28;20042;-67
2023/05/24 05:28:32;;;;;;;19.27;11.40;;;25.70;49.10;;;;;;5090303;28;20480;-68
2023/05/24 05:30:58;;;;;;;18.08;10.55;;;25.50;48.70;;;;;;5103627;28;20046;-67
2023/05/24 05:33:24;;;;;;;16.33;10.40;;;25.50;47.70;;;;;;5111699;28;20039;-65
2023/05/24 05:35:50;;;;;;;18.65;10.40;;;25.50;48.40;;;;;;5096760;28;20446;-66
2023/05/24 05:38:16;;;;;;;15.93;10.43;;;25.50;48.40;;;;;;5091358;28;20040;-65
2023/05/24 05:40:42;;;;;;;18.30;9.82;;;25.50;47.40;;;;;;5095336;28;20032;-67
2023/05/24 05:43:08;;;;;;;12.90;8.80;;;25.50;47.50;;;;;;5090273;28;20095;-66
2023/05/24 05:45:34;;;;;;;15.68;9.73;;;25.40;47.00;;;;;;5102470;27;20205;-65
2023/05/24 05:48:00;;;;;;;15.48;8.07;;;25.40;47.80;;;;;;5096045;28;20548;-66
2023/05/24 05:50:26;;;;;;;12.63;6.95;;;25.50;48.30;;;;;;5091730;28;20028;-66
2023/05/24 05:52:52;;;;;;;13.02;6.75;;;25.40;48.00;;;;;;5091478;28;20032;-66
2023/05/24 05:55:19;;;;;;;8.52;6.03;;;25.60;48.30;;;;;;5090827;28;20031;-74
2023/05/24 05:57:45;;;;;;;15.52;7.07;;;25.60;48.40;;;;;;5091125;28;20030;-72
2023/05/24 06:00:11;;;;;;;9.40;5.43;;;25.40;48.70;;;;;;5089489;28;20392;-71
2023/05/24 06:02:40;;;;;;;10.35;5.97;;;25.60;48.80;;;;;;5091834;28;20055;-71
2023/05/24 06:05:06;;;;;;;11.73;6.28;;;25.60;48.80;;;;;;5088645;28;20112;-71
2023/05/24 06:07:32;;;;;;;10.07;6.30;;;25.50;48.80;;;;;;5091293;28;20024;-72
2023/05/24 06:09:58;;;;;;;11.48;5.43;;;25.50;48.70;;;;;;5093506;28;20035;-72
2023/05/24 06:12:25;;;;;;;9.85;5.80;;;25.50;48.80;;;;;;5090318;28;20016;-73
2023/05/24 06:14:51;;;;;;;9.68;5.15;;;25.50;48.80;;;;;;5090747;28;20028;-75
2023/05/24 06:17:17;;;;;;;10.68;5.78;;;25.70;48.50;;;;;;5090116;28;20028;-73
2023/05/24 06:19:44;;;;;;;10.98;4.82;;;25.70;48.70;;;;;;5090061;28;20453;-72
2023/05/24 06:22:11;;;;;;;6.95;5.15;;;25.70;48.60;;;;;;5090467;28;20492;-72
2023/05/24 06:24:38;;;;;;;8.40;5.72;;;25.60;50.20;;;;;;5088821;28;20459;-72
2023/05/24 06:27:04;;;;;;;9.43;5.93;;;25.70;50.70;;;;;;5086911;28;20024;-72
2023/05/24 06:29:30;;;;;;;14.65;6.65;;;25.70;49.80;;;;;;5090836;28;20028;-73
2023/05/24 06:31:56;;;;;;;10.23;6.30;;;25.60;49.30;;;;;;5089931;28;20024;-72
2023/05/24 06:34:22;;;;;;;9.68;5.68;;;25.60;48.60;;;;;;5091378;28;20101;-71
2023/05/24 06:36:50;;;;;;;8.88;4.72;;;25.70;48.70;;;;;;5090611;28;20054;-72
2023/05/24 06:39:16;;;;;;;7.88;4.85;;;25.70;48.70;;;;;;5089914;28;20036;-73
2023/05/24 06:41:43;;;;;;;9.82;5.90;;;25.60;48.40;;;;;;5090458;28;20032;-71
2023/05/24 06:44:09;;;;;;;12.23;5.35;;;25.70;48.30;;;;;;5090357;28;20063;-72
2023/05/24 06:46:36;;;;;;;8.38;5.43;;;25.70;48.00;;;;;;5090772;28;20040;-71
2023/05/24 06:49:02;;;;;;;9.65;5.03;;;25.80;47.90;;;;;;5089830;28;20040;-71
2023/05/24 06:51:29;;;;;;;8.48;5.65;;;25.70;47.90;;;;;;5090810;28;20103;-72
2023/05/24 06:53:55;;;;;;;9.45;5.10;;;25.80;47.90;;;;;;5090035;28;20048;-71
2023/05/24 06:56:21;;;;;;;8.93;5.30;;;25.80;47.80;;;;;;5088048;28;20063;-74
2023/05/24 06:58:48;;;;;;;13.55;5.15;;;25.80;48.00;;;;;;5090819;28;20048;-72
2023/05/24 07:01:14;;;;;;;10.10;5.22;;;25.70;47.80;;;;;;5089660;28;20048;-71
2023/05/24 07:03:40;;;;;;;10.85;4.88;;;25.80;47.20;;;;;;5087617;28;20031;-75
2023/05/24 07:06:08;;;;;;;4.05;2.58;;;25.70;47.50;;;;;;5090714;28;20016;-72
2023/05/24 07:08:35;;;;;;;2.85;2.60;;;25.80;49.30;;;;;;5091578;28;20036;-74
2023/05/24 07:11:01;;;;;;;0.95;0.95;;;25.80;49.10;;;;;;5099854;28;20089;-69
2023/05/24 07:13:27;;;;;;;4.95;2.40;;;25.80;49.30;;;;;;5088362;28;20034;-72
2023/05/24 07:15:53;;;;;;;3.38;1.83;;;25.90;49.90;;;;;;5100619;28;20032;-73
2023/05/24 07:18:19;;;;;;;8.63;4.88;;;25.90;50.00;;;;;;5090340;28;20036;-74
2023/05/24 07:20:45;;;;;;;9.63;5.10;;;25.90;49.10;;;;;;5091338;28;20039;-75
2023/05/24 07:23:11;;;;;;;11.23;4.95;;;25.80;50.00;;;;;;5109590;28;20093;-73
2023/05/24 07:25:37;;;;;;;8.07;5.70;;;25.90;50.40;;;;;;5097494;28;20016;-72
2023/05/24 07:28:03;;;;;;;10.02;4.88;;;25.90;50.90;;;;;;5097467;28;20123;-73
2023/05/24 07:30:29;;;;;;;3.97;2.53;;;25.80;51.20;;;;;;5096876;28;20024;-74
2023/05/24 07:32:55;;;;;;;10.00;4.85;;;25.90;50.40;;;;;;5103174;28;20112;-72
2023/05/24 07:35:22;;;;;;;11.55;5.00;;;25.80;50.00;;;;;;5088898;28;20028;-72
2023/05/24 07:37:48;;;;;;;8.18;5.35;;;25.70;50.10;;;;;;5071241;28;20139;-73
2023/05/24 07:40:15;;;;;;;7.57;4.88;;;25.80;49.80;;;;;;5088436;28;20039;-73
2023/05/24 07:42:41;;;;;;;14.40;4.45;;;25.80;49.70;;;;;;5088866;28;20039;-74
2023/05/24 07:45:09;;;;;;;12.95;4.45;;;25.70;49.50;;;;;;5090198;28;20115;-73
2023/05/24 07:47:36;;;;;;;6.35;4.65;;;25.70;49.50;;;;;;5090212;28;20138;-74
2023/05/24 07:50:02;;;;;;;9.48;4.40;;;25.70;49.60;;;;;;5089907;28;20043;-73
2023/05/24 07:52:28;;;;;;;7.00;4.28;;;25.80;49.60;;;;;;5089648;28;20016;-73
2023/05/24 07:54:55;;;;;;;14.07;4.70;;;25.80;49.70;;;;;;5089442;28;20029;-73
2023/05/24 07:57:21;;;;;;;11.73;4.35;;;25.90;49.70;;;;;;5086515;28;20043;-73
2023/05/24 07:59:47;;;;;;;9.63;4.47;;;25.80;49.70;;;;;;5085328;28;20031;-73
2023/05/24 08:02:15;;;;;;;8.45;4.38;;;25.80;49.70;;;;;;5088313;28;20464;-73
2023/05/24 08:04:42;;;;;;;4.97;3.85;;;25.90;49.70;;;;;;5086755;28;20024;-73
2023/05/24 08:07:08;;;;;;;10.93;4.18;;;25.80;49.60;;;;;;5091608;28;20028;-73
2023/05/24 08:09:35;;;;;;;7.00;3.67;;;25.80;49.70;;;;;;5093160;28;20260;-72
2023/05/24 08:12:02;;;;;;;6.07;3.88;;;25.90;49.70;;;;;;5091767;28;20035;-74
2023/05/24 08:14:28;;;;;;;4.00;3.08;;;25.80;49.70;;;;;;5087606;28;20056;-73
2023/05/24 08:16:54;;;;;;;4.38;3.45;;;25.80;49.70;;;;;;5085708;28;20055;-72
2023/05/24 08:19:20;;;;;;;5.82;3.05;;;25.90;48.40;;;;;;5093679;28;20071;-71
2023/05/24 08:21:46;;;;;;;4.78;3.50;;;25.80;49.60;;;;;;5091979;28;20452;-73
2023/05/24 08:24:12;;;;;;;3.33;2.72;;;25.90;49.70;;;;;;5092414;28;20426;-73
2023/05/24 08:26:38;;;;;;;3.53;3.22;;;26.00;50.10;;;;;;5092819;28;20085;-74
2023/05/24 08:29:04;;;;;;;5.43;3.00;;;26.00;50.20;;;;;;5090726;28;20032;-74
2023/05/24 08:31:32;;;;;;;6.35;3.00;;;26.00;49.60;;;;;;5073312;28;20476;-74
2023/05/24 08:33:58;;;;;;;4.82;3.30;;;25.90;49.60;;;;;;5086710;28;20125;-74
2023/05/24 08:36:24;;;;;;;2.58;2.38;;;26.00;50.20;;;;;;5092314;28;20032;-73
2023/05/24 08:38:50;;;;;;;3.88;2.53;;;26.00;50.00;;;;;;5092229;28;20036;-72
2023/05/24 08:41:16;;;;;;;4.28;3.10;;;26.00;50.20;;;;;;5093135;28;20114;-72
2023/05/24 08:43:44;;;;;;;5.00;2.35;;;25.90;49.70;;;;;;5091613;28;20173;-72
2023/05/24 08:46:12;;;;;;;3.65;2.92;;;25.90;49.70;;;;;;5092124;28;20028;-74
2023/05/24 08:48:45;;;;;;;6.57;2.88;;;26.00;49.90;;;;;;5093128;28;20031;-74
2023/05/24 08:51:14;;;;;;;4.40;3.03;;;26.00;50.20;;;;;;5092345;28;20039;-72
2023/05/24 08:53:47;;;;;;;4.40;2.88;;;26.00;50.10;;;;;;5092930;28;20055;-74
2023/05/24 08:56:16;;;;;;;5.05;3.17;;;26.10;50.20;;;;;;5089232;28;20036;-72
2023/05/24 08:58:44;;;;;;;5.25;3.25;;;26.00;50.30;;;;;;5090563;28;20074;-73
2023/05/24 09:01:11;;;;;;;4.78;4.28;;;26.00;50.30;;;;;;5091233;28;20040;-73
2023/05/24 09:03:41;;;;;;;5.57;2.75;;;26.10;50.30;;;;;;5092764;28;20491;-73
2023/05/24 09:06:08;;;;;;;8.45;3.03;;;26.00;50.20;;;;;;5092824;28;20040;-73
2023/05/24 09:08:37;;;;;;;5.78;3.17;;;26.10;50.20;;;;;;5091597;28;20040;-72
2023/05/24 09:11:06;;;;;;;3.67;2.85;;;26.10;50.30;;;;;;5091625;28;20028;-73
2023/05/24 09:13:33;;;;;;;3.15;2.50;;;26.00;50.10;;;;;;5091292;28;20484;-72
2023/05/24 09:16:00;;;;;;;5.18;3.30;;;26.10;50.20;;;;;;5092812;28;20043;-72
2023/05/24 09:18:27;;;;;;;4.72;3.17;;;26.00;50.30;;;;;;5090301;28;20154;-73
2023/05/24 09:20:53;;;;;;;4.38;3.00;;;26.10;50.30;;;;;;5091242;28;20048;-70
2023/05/24 09:23:19;;;;;;;2.70;2.47;;;26.10;50.30;;;;;;5091828;28;20052;-69
2023/05/24 09:25:46;;;;;;;4.30;3.05;;;26.00;50.40;;;;;;5091489;28;20067;-71
2023/05/24 09:28:16;;;;;;;3.58;2.72;;;26.00;50.40;;;;;;5090459;28;20036;-70
2023/05/24 09:30:43;;;;;;;2.20;2.00;;;26.20;50.50;;;;;;5092238;28;20081;-70
2023/05/24 09:33:10;;;;;;;3.30;2.67;;;26.00;50.40;;;;;;5092014;28;20028;-70
2023/05/24 09:35:36;;;;;;;2.72;2.28;;;26.10;50.50;;;;;;5090051;28;20036;-70
2023/05/24 09:38:02;;;;;;;2.65;2.40;;;26.10;49.90;;;;;;5091496;28;20064;-71
2023/05/24 09:40:29;;;;;;;2.88;2.58;;;26.10;50.40;;;;;;5092029;28;20051;-69
2023/05/24 09:43:10;;;;;;;3.70;2.95;;;26.10;50.00;;;;;;5090191;28;20059;-70
2023/05/24 09:45:46;;;;;;;3.72;2.45;;;26.10;50.40;;;;;;5092100;28;20031;-70
2023/05/24 09:48:14;;;;;;;2.70;2.50;;;26.10;50.50;;;;;;5091994;28;20040;-70
2023/05/24 09:50:40;;;;;;;2.85;2.30;;;26.20;50.50;;;;;;5092022;28;20615;-70
2023/05/24 09:53:07;;;;;;;4.28;3.05;;;26.10;50.50;;;;;;5089680;28;20021;-70
2023/05/24 09:55:37;;;;;;;3.67;2.38;;;26.10;50.50;;;;;;5091892;28;20591;-70
2023/05/24 09:58:07;;;;;;;3.83;2.58;;;26.10;49.70;;;;;;5089551;28;20032;-70
2023/05/24 10:00:40;;;;;;;2.90;2.53;;;26.10;49.20;;;;;;5107230;28;20454;-70
2023/05/24 10:03:07;;;;;;;4.63;2.38;;;26.10;50.50;;;;;;5091476;28;20055;-71
2023/05/24 10:05:35;;;;;;;3.58;2.35;;;26.10;50.50;;;;;;5092166;28;20114;-70
2023/05/24 10:08:03;;;;;;;3.33;2.33;;;26.10;50.40;;;;;;5090518;28;20075;-70
2023/05/24 10:10:32;;;;;;;3.55;2.22;;;26.10;50.60;;;;;;5091833;28;20068;-71
2023/05/24 10:12:59;;;;;;;5.28;2.58;;;26.00;50.60;;;;;;5090732;28;20082;-70
2023/05/24 10:15:26;;;;;;;3.45;1.90;;;26.10;50.60;;;;;;5091765;28;20040;-70
2023/05/24 10:17:56;;;;;;;3.63;2.47;;;26.00;50.60;;;;;;5104344;28;20130;-70
2023/05/24 10:20:25;;;;;;;1.45;1.33;;;26.00;50.60;;;;;;5101988;28;20031;-71
2023/05/24 10:22:58;;;;;;;1.63;1.52;;;26.00;52.50;;;;;;5090639;28;20771;-71
2023/05/24 10:25:27;;;;;;;2.03;1.80;;;26.00;54.70;;;;;;5092985;28;20650;-69
2023/05/24 10:28:08;;;;;;;3.70;2.38;;;26.50;57.20;;;;;;5098925;28;20450;-70
2023/05/24 10:30:42;;;;;;;7.68;3.03;;;26.70;54.00;;;;;;5102386;28;20386;-71
2023/05/24 10:33:11;;;;;;;4.28;3.28;;;26.90;56.50;;;;;;5087685;28;20555;-70
2023/05/24 10:35:39;;;;;;;4.60;2.83;;;27.10;54.80;;;;;;5083733;28;20043;-73
2023/05/24 10:38:08;;;;;;;3.47;2.72;;;27.10;57.90;;;;;;5091214;28;20078;-71
2023/05/24 10:40:39;;;;;;;6.63;3.15;;;27.30;57.80;;;;;;5090375;28;20063;-72
2023/05/24 10:43:06;;;;;;;3.03;2.72;;;27.30;58.20;;;;;;5099891;28;20103;-71
2023/05/24 10:45:37;;;;;;;5.07;3.10;;;27.50;56.90;;;;;;5091495;28;20706;-72
2023/05/24 10:48:13;;;;;;;3.38;3.03;;;27.60;56.10;;;;;;5090030;28;20081;-70
2023/05/24 10:50:40;;;;;;;4.72;3.03;;;27.60;45.60;;;;;;5091557;28;20430;-71
2023/05/24 10:53:13;;;;;;;3.40;2.65;;;27.60;44.80;;;;;;5089512;28;20032;-70
2023/05/24 10:56:00;;;;;;;3.92;3.38;;;27.50;46.60;;;;;;5071334;28;20400;-69
2023/05/24 10:58:45;;;;;;;4.70;2.88;;;27.50;45.30;;;;;;5081165;28;20047;-69
2023/05/24 11:01:25;;;;;;;4.93;3.00;;;27.20;44.40;;;;;;5091045;28;20032;-70
2023/05/24 11:03:52;;;;;;;5.68;3.40;;;27.10;43.60;;;;;;5090890;28;20438;-70
2023/05/24 11:06:18;;;;;;;5.53;3.22;;;27.00;44.90;;;;;;5090438;28;20490;-69
2023/05/24 11:08:45;;;;;;;3.10;2.35;;;27.10;43.70;;;;;;5088595;28;20380;-70
2023/05/24 11:11:19;;;;;;;3.70;2.20;;;27.10;43.90;;;;;;5089255;28;20472;-70
2023/05/24 11:13:46;;;;;;;4.57;2.42;;;26.90;43.90;;;;;;5087385;28;20040;-70
2023/05/24 11:16:43;;;;;;;2.40;2.13;;;26.80;43.70;;;;;;5091807;28;20047;-70
2023/05/24 11:19:20;;;;;;;3.35;2.20;;;26.90;49.00;;;;;;5068063;28;20098;-70
2023/05/24 11:21:49;;;;;;;2.40;1.90;;;26.90;49.90;;;;;;5068187;28;20064;-71
2023/05/24 11:24:17;;;;;;;3.63;2.33;;;26.90;50.30;;;;;;5067525;28;20076;-71
2023/05/24 11:26:44;;;;;;;3.72;2.25;;;26.90;50.50;;;;;;5068296;28;20094;-72
2023/05/24 11:29:16;;;;;;;4.55;2.17;;;26.80;50.80;;;;;;5067046;28;20079;-74
2023/05/24 11:31:53;;;;;;;2.15;2.00;;;27.00;49.70;;;;;;5051708;28;20036;-70
2023/05/24 11:34:23;;;;;;;3.67;2.25;;;26.80;51.30;;;;;;5068476;28;20044;-70
2023/05/24 11:36:54;;;;;;;2.30;1.63;;;26.80;51.40;;;;;;5067481;28;20052;-71
2023/05/24 11:39:20;;;;;;;2.63;2.17;;;26.80;52.10;;;;;;5066630;28;20536;-70
2023/05/24 11:41:46;;;;;;;2.75;2.47;;;26.70;52.20;;;;;;5069926;28;20044;-70
2023/05/24 11:44:18;;;;;;;5.35;2.83;;;26.80;52.00;;;;;;5068782;28;20036;-72
2023/05/24 11:46:45;;;;;;;3.30;2.33;;;26.80;51.70;;;;;;5067977;28;20032;-72
2023/05/24 11:49:13;;;;;;;3.38;2.15;;;26.80;51.50;;;;;;5070483;28;20044;-70
2023/05/24 11:51:39;;;;;;;2.38;2.17;;;26.70;51.60;;;;;;5070972;28;20432;-70
2023/05/24 11:54:05;;;;;;;2.33;2.08;;;26.70;49.90;;;;;;5065016;28;20048;-70
2023/05/24 11:56:31;;;;;;;2.70;1.95;;;26.60;50.40;;;;;;5091400;28;20051;-72
2023/05/24 11:59:16;;;;;;;2.13;1.92;;;26.80;51.00;;;;;;5092171;28;20031;-72
2023/05/24 12:01:43;;;;;;;1.90;1.67;;;26.70;50.20;;;;;;5086092;28;20361;-72
2023/05/24 12:04:10;;;;;;;3.50;2.78;;;26.70;48.50;;;;;;5093837;28;20024;-71
2023/05/24 12:06:41;;;;;;;5.68;2.22;;;26.60;46.80;;;;;;5101335;28;20063;-71
2023/05/24 12:09:15;;;;;;;2.35;1.92;;;26.60;51.20;;;;;;5092306;28;20041;-70
2023/05/24 12:11:49;;;;;;;4.88;2.45;;;26.60;50.70;;;;;;5094851;28;20114;-72
2023/05/24 12:14:17;;;;;;;6.43;2.22;;;26.60;46.80;;;;;;5109474;27;20044;-70
2023/05/24 12:16:44;;;;;;;3.13;2.38;;;26.60;47.40;;;;;;5093313;28;20024;-71
2023/05/24 12:19:21;;;;;;;3.25;1.80;;;26.60;50.00;;;;;;5093547;28;20048;-72
2023/05/24 12:21:49;;;;;;;3.22;2.55;;;26.60;50.50;;;;;;5087355;28;20052;-71
2023/05/24 12:24:19;;;;;;;3.10;2.03;;;26.50;48.40;;;;;;5092048;28;20076;-72
2023/05/24 12:26:49;;;;;;;4.03;2.20;;;26.50;49.50;;;;;;5090126;28;20031;-73
2023/05/24 12:29:16;;;;;;;4.47;2.00;;;26.40;48.60;;;;;;5093065;28;20425;-74
2023/05/24 12:31:44;;;;;;;2.25;1.85;;;26.30;49.80;;;;;;5094097;28;20390;-72
2023/05/24 12:34:19;;;;;;;2.30;1.90;;;26.40;48.60;;;;;;5094345;28;20054;-73
2023/05/24 12:36:46;;;;;;;2.95;1.77;;;26.40;48.40;;;;;;5094009;28;20368;-74
2023/05/24 12:39:29;;;;;;;2.80;1.95;;;26.40;49.20;;;;;;5092211;28;20024;-71
2023/05/24 12:41:57;;;;;;;3.03;2.20;;;26.30;46.10;;;;;;5094423;28;20036;-73
2023/05/24 12:44:32;;;;;;;3.35;2.13;;;26.40;48.10;;;;;;5092142;28;20714;-73
2023/05/24 12:47:00;;;;;;;3.35;2.10;;;26.30;48.70;;;;;;5096623;28;20489;-74
2023/05/24 12:49:26;;;;;;;3.42;2.28;;;26.30;49.30;;;;;;5094617;28;20090;-73
2023/05/24 12:51:54;;;;;;;2.20;2.00;;;26.40;46.80;;;;;;5092137;28;20032;-73